createdAt,value
2023-09-23T00:02:48.213Z,8.48
2023-09-23T00:05:37.819Z,6.97
2023-09-23T00:08:25.663Z,7.40
2023-09-23T00:11:14.812Z,7.55
2023-09-23T00:14:02.776Z,7.82
2023-09-23T00:16:50.701Z,7.25
2023-09-23T00:19:41.598Z,7.38
2023-09-23T00:22:29.616Z,7.72
2023-09-23T00:25:19.787Z,8.68
2023-09-23T00:28:12.002Z,8.60
2023-09-23T00:31:11.468Z,7.72
2023-09-23T00:34:00.187Z,8.38
2023-09-23T00:36:48.095Z,8.13
2023-09-23T00:39:42.920Z,8.32
2023-09-23T00:42:31.110Z,7.82
2023-09-23T00:45:23.518Z,8.23
2023-09-23T00:48:12.306Z,7.97
2023-09-23T00:51:01.237Z,8.40
2023-09-23T00:53:49.925Z,7.85
2023-09-23T00:56:38.157Z,6.90
2023-09-23T00:59:25.973Z,7.43
2023-09-23T01:02:15.544Z,8.00
2023-09-23T01:05:03.924Z,8.88
2023-09-23T01:07:52.624Z,7.47
2023-09-23T01:10:40.763Z,7.40
2023-09-23T01:13:31.302Z,8.68
2023-09-23T01:16:20.396Z,7.65
2023-09-23T01:19:10.989Z,7.97
2023-09-23T01:21:58.922Z,7.22
2023-09-23T01:24:48.014Z,8.57
2023-09-23T01:27:36.276Z,7.78
2023-09-23T01:30:25.411Z,7.38
2023-09-23T01:33:14.023Z,7.85
2023-09-23T01:36:04.407Z,7.75
2023-09-23T01:38:52.189Z,7.80
2023-09-23T01:41:42.010Z,7.93
2023-09-23T01:44:29.889Z,8.48
2023-09-23T01:47:23.036Z,8.90
2023-09-23T01:50:11.945Z,7.30
2023-09-23T01:53:01.850Z,8.60
2023-09-23T01:55:49.635Z,7.47
2023-09-23T01:58:38.770Z,7.60
2023-09-23T02:01:27.574Z,7.60
2023-09-23T02:04:16.213Z,7.50
2023-09-23T02:07:04.098Z,7.90
2023-09-23T02:09:51.958Z,7.57
2023-09-23T02:12:39.771Z,6.80
2023-09-23T02:15:28.918Z,8.40
2023-09-23T02:18:16.899Z,7.40
2023-09-23T02:21:05.072Z,7.15
2023-09-23T02:23:52.961Z,7.18
2023-09-23T02:26:40.677Z,7.25
2023-09-23T02:29:28.675Z,7.28
2023-09-23T02:32:17.854Z,7.18
2023-09-23T02:35:07.536Z,7.45
2023-09-23T02:37:55.919Z,7.03
2023-09-23T02:40:44.950Z,6.80
2023-09-23T02:43:33.020Z,6.95
2023-09-23T02:46:20.870Z,7.90
2023-09-23T02:49:10.866Z,6.88
2023-09-23T02:51:58.615Z,7.30
2023-09-23T02:54:46.304Z,7.03
2023-09-23T02:57:36.489Z,6.85
2023-09-23T03:00:25.728Z,7.32
2023-09-23T03:03:20.394Z,6.75
2023-09-23T03:06:12.009Z,7.30
2023-09-23T03:09:00.956Z,7.25
2023-09-23T03:11:54.605Z,6.93
2023-09-23T03:14:44.201Z,7.53
2023-09-23T03:17:33.514Z,7.95
2023-09-23T03:20:24.132Z,6.82
2023-09-23T03:23:13.417Z,7.30
2023-09-23T03:26:01.818Z,9.50
2023-09-23T03:28:50.937Z,8.63
2023-09-23T03:31:38.721Z,8.35
2023-09-23T03:34:27.520Z,7.43
2023-09-23T03:37:16.368Z,8.40
2023-09-23T03:40:09.227Z,8.27
2023-09-23T03:42:56.947Z,7.45
2023-09-23T03:45:44.835Z,8.52
2023-09-23T03:48:32.662Z,7.60
2023-09-23T03:51:20.269Z,8.10
2023-09-23T03:54:08.758Z,7.70
2023-09-23T03:56:58.254Z,7.72
2023-09-23T03:59:46.036Z,7.20
2023-09-23T04:02:34.449Z,8.15
2023-09-23T04:05:25.005Z,7.88
2023-09-23T04:08:13.949Z,8.30
2023-09-23T04:11:04.296Z,7.88
2023-09-23T04:13:53.540Z,7.95
2023-09-23T04:16:41.353Z,7.28
2023-09-23T04:19:29.427Z,8.75
2023-09-23T04:22:19.407Z,7.93
2023-09-23T04:25:08.043Z,8.15
2023-09-23T04:27:57.029Z,8.02
2023-09-23T04:30:46.147Z,8.63
2023-09-23T04:33:33.932Z,9.60
2023-09-23T04:36:22.519Z,9.88
2023-09-23T04:39:10.332Z,8.90
2023-09-23T04:41:58.149Z,7.97
2023-09-23T04:44:46.099Z,7.80
2023-09-23T04:47:36.357Z,10.88
2023-09-23T04:50:26.215Z,11.43
2023-09-23T04:53:14.084Z,9.18
2023-09-23T04:56:01.943Z,9.00
2023-09-23T04:58:49.973Z,8.15
2023-09-23T05:01:38.025Z,9.60
2023-09-23T05:04:27.291Z,9.75
2023-09-23T05:07:15.650Z,9.13
2023-09-23T05:10:03.368Z,8.57
2023-09-23T05:12:55.291Z,8.35
2023-09-23T05:15:44.721Z,9.95
2023-09-23T05:18:32.645Z,11.38
2023-09-23T05:21:21.992Z,9.40
2023-09-23T05:24:11.458Z,9.07
2023-09-23T05:27:01.187Z,8.13
2023-09-23T05:29:52.032Z,8.23
2023-09-23T05:32:40.127Z,8.98
2023-09-23T05:35:29.173Z,7.93
2023-09-23T05:38:18.322Z,8.57
2023-09-23T05:41:06.476Z,8.68
2023-09-23T05:43:54.624Z,7.90
2023-09-23T05:46:43.562Z,7.80
2023-09-23T05:49:32.814Z,8.18
2023-09-23T05:52:20.503Z,8.25
2023-09-23T05:55:10.437Z,9.05
2023-09-23T05:57:58.189Z,8.98
2023-09-23T06:00:47.273Z,8.88
2023-09-23T06:03:35.169Z,8.65
2023-09-23T06:06:23.257Z,8.13
2023-09-23T06:09:11.061Z,9.05
2023-09-23T06:12:00.048Z,8.57
2023-09-23T06:14:48.122Z,10.52
2023-09-23T06:17:38.443Z,9.40
2023-09-23T06:20:26.785Z,9.35
2023-09-23T06:23:14.430Z,9.18
2023-09-23T06:26:04.011Z,10.68
2023-09-23T06:28:53.261Z,9.40
2023-09-23T06:31:41.176Z,10.10
2023-09-23T06:34:29.180Z,7.90
2023-09-23T06:37:17.119Z,8.52
2023-09-23T06:40:06.547Z,9.23
2023-09-23T06:42:54.318Z,9.57
2023-09-23T06:45:43.512Z,9.80
2023-09-23T06:48:31.433Z,9.48
2023-09-23T06:51:19.109Z,11.05
2023-09-23T06:54:08.265Z,9.57
2023-09-23T06:56:56.164Z,9.77
2023-09-23T06:59:44.276Z,10.25
2023-09-23T07:02:33.439Z,9.32
2023-09-23T07:05:21.363Z,11.10
2023-09-23T07:08:09.169Z,10.43
2023-09-23T07:10:57.339Z,11.40
2023-09-23T07:13:46.116Z,11.50
2023-09-23T07:16:34.777Z,10.63
2023-09-23T07:19:24.271Z,14.18
2023-09-23T07:22:12.072Z,11.07
2023-09-23T07:24:59.978Z,11.90
2023-09-23T07:27:48.122Z,12.35
2023-09-23T07:30:36.907Z,11.02
2023-09-23T07:33:24.938Z,11.50
2023-09-23T07:36:14.730Z,11.23
2023-09-23T07:39:03.291Z,12.00
2023-09-23T07:41:51.288Z,9.90
2023-09-23T07:44:38.996Z,9.52
2023-09-23T07:47:27.872Z,10.48
2023-09-23T07:50:15.760Z,11.05
2023-09-23T07:53:05.233Z,11.98
2023-09-23T07:55:53.008Z,9.52
2023-09-23T07:58:41.057Z,9.85
2023-09-23T08:01:28.807Z,10.77
2023-09-23T08:04:16.641Z,9.43
2023-09-23T08:07:04.534Z,10.40
2023-09-23T08:09:53.810Z,9.15
2023-09-23T08:12:41.794Z,10.93
2023-09-23T08:15:29.473Z,8.95
2023-09-23T08:18:17.550Z,8.98
2023-09-23T08:21:07.309Z,9.00
2023-09-23T08:23:55.233Z,9.13
2023-09-23T08:26:44.349Z,9.07
2023-09-23T08:29:32.792Z,8.70
2023-09-23T08:32:20.858Z,9.40
2023-09-23T08:35:09.493Z,8.48
2023-09-23T08:37:57.481Z,9.52
2023-09-23T08:40:46.583Z,7.85
2023-09-23T08:43:38.908Z,8.18
2023-09-23T08:46:28.202Z,6.53
2023-09-23T08:49:16.203Z,8.50
2023-09-23T08:52:05.455Z,7.82
2023-09-23T08:54:53.164Z,8.05
2023-09-23T08:57:41.931Z,8.93
2023-09-23T09:00:32.020Z,7.88
2023-09-23T09:03:19.875Z,8.48
2023-09-23T09:06:17.837Z,8.05
2023-09-23T09:09:05.743Z,8.32
2023-09-23T09:11:56.077Z,7.80
2023-09-23T09:14:43.748Z,8.10
2023-09-23T09:17:35.497Z,7.35
2023-09-23T09:20:23.686Z,7.97
2023-09-23T09:23:16.197Z,8.85
2023-09-23T09:26:04.014Z,8.85
2023-09-23T09:28:51.813Z,9.77
2023-09-23T09:31:39.930Z,8.07
2023-09-23T09:34:33.841Z,7.90
2023-09-23T09:40:18.250Z,8.05
2023-09-23T09:43:06.861Z,9.82
2023-09-23T09:45:56.636Z,9.38
2023-09-23T09:48:48.172Z,7.93
2023-09-23T09:51:38.304Z,7.90
2023-09-23T09:54:27.701Z,8.43
2023-09-23T09:57:16.035Z,9.27
2023-09-23T10:00:09.909Z,8.05
2023-09-23T10:03:07.251Z,8.63
2023-09-23T10:06:01.433Z,8.13
2023-09-23T10:08:52.917Z,8.73
2023-09-23T10:11:40.869Z,9.43
2023-09-23T10:14:28.909Z,8.00
2023-09-23T10:17:16.761Z,7.75
2023-09-23T10:20:12.093Z,7.70
2023-09-23T10:23:00.979Z,8.68
2023-09-23T10:25:53.685Z,9.02
2023-09-23T10:28:42.106Z,8.68
2023-09-23T10:31:31.306Z,8.18
2023-09-23T10:34:19.131Z,7.97
2023-09-23T10:37:06.912Z,8.07
2023-09-23T10:39:54.731Z,8.70
2023-09-23T10:42:44.310Z,10.43
2023-09-23T10:45:32.861Z,8.43
2023-09-23T10:48:20.790Z,10.20
2023-09-23T10:51:10.177Z,7.40
2023-09-23T10:53:58.598Z,7.20
2023-09-23T10:56:46.477Z,7.60
2023-09-23T10:59:35.905Z,8.10
2023-09-23T11:02:26.269Z,7.40
2023-09-23T11:05:16.356Z,7.25
2023-09-23T11:08:04.530Z,7.55
2023-09-23T11:10:52.258Z,6.95
2023-09-23T11:13:39.940Z,7.50
2023-09-23T11:16:29.272Z,7.50
2023-09-23T11:19:18.623Z,7.93
2023-09-23T11:22:06.524Z,6.55
2023-09-23T11:24:55.358Z,7.45
2023-09-23T11:27:48.954Z,8.18
2023-09-23T11:30:37.016Z,6.60
2023-09-23T11:33:27.163Z,7.05
2023-09-23T11:36:15.170Z,7.53
2023-09-23T11:39:03.430Z,6.50
2023-09-23T11:41:58.598Z,7.28
2023-09-23T11:44:46.543Z,7.05
2023-09-23T11:47:34.421Z,9.35
2023-09-23T11:50:24.060Z,7.60
2023-09-23T11:53:12.258Z,7.57
2023-09-23T11:56:00.119Z,7.93
2023-09-23T11:59:05.737Z,7.35
2023-09-23T12:01:55.434Z,6.35
2023-09-23T12:04:43.186Z,6.55
2023-09-23T12:07:34.073Z,6.30
2023-09-23T12:10:21.956Z,7.03
2023-09-23T12:13:09.654Z,6.80
2023-09-23T12:15:57.451Z,6.18
2023-09-23T12:18:46.043Z,6.03
2023-09-23T12:21:34.061Z,6.20
2023-09-23T12:24:23.135Z,6.57
2023-09-23T12:27:11.121Z,7.43
2023-09-23T12:29:59.615Z,6.63
2023-09-23T12:32:47.796Z,6.32
2023-09-23T12:35:35.708Z,7.30
2023-09-23T12:38:23.604Z,5.40
2023-09-23T12:41:12.981Z,7.10
2023-09-23T12:44:00.984Z,7.30
2023-09-23T12:46:49.245Z,5.82
2023-09-23T12:49:38.061Z,6.68
2023-09-23T12:52:25.925Z,6.68
2023-09-23T12:55:13.697Z,10.70
2023-09-23T12:58:02.920Z,7.55
2023-09-23T13:00:50.718Z,5.32
2023-09-23T13:03:38.764Z,7.00
2023-09-23T13:06:26.878Z,5.78
2023-09-23T13:09:14.513Z,5.38
2023-09-23T13:12:02.806Z,5.82
2023-09-23T13:14:53.433Z,7.10
2023-09-23T13:17:41.286Z,5.60
2023-09-23T13:20:29.194Z,5.60
2023-09-23T13:23:16.999Z,6.32
2023-09-23T13:26:04.931Z,7.00
2023-09-23T13:28:52.644Z,5.45
2023-09-23T13:31:41.846Z,6.25
2023-09-23T13:34:29.616Z,6.57
2023-09-23T13:37:17.433Z,6.35
2023-09-23T13:40:05.983Z,5.85
2023-09-23T13:42:54.061Z,5.75
2023-09-23T13:45:42.069Z,5.85
2023-09-23T13:48:31.337Z,5.75
2023-09-23T13:51:19.362Z,6.75
2023-09-23T13:54:07.381Z,7.40
2023-09-23T13:56:55.405Z,7.10
2023-09-23T13:59:43.146Z,7.65
2023-09-23T14:02:31.421Z,6.00
2023-09-23T14:05:20.662Z,5.85
2023-09-23T14:08:09.813Z,5.30
2023-09-23T14:10:57.852Z,6.05
2023-09-23T14:13:46.542Z,5.22
2023-09-23T14:16:34.867Z,6.18
2023-09-23T14:19:22.932Z,6.38
2023-09-23T14:22:12.107Z,4.97
2023-09-23T14:24:59.808Z,6.65
2023-09-23T14:27:47.553Z,5.68
2023-09-23T14:30:35.347Z,5.38
2023-09-23T14:33:23.073Z,6.45
2023-09-23T14:36:10.997Z,7.00
2023-09-23T14:39:04.579Z,6.15
2023-09-23T14:41:54.321Z,5.60
2023-09-23T14:44:42.031Z,6.78
2023-09-23T14:47:29.920Z,6.95
2023-09-23T14:50:17.934Z,6.47
2023-09-23T14:53:05.995Z,7.15
2023-09-23T14:55:55.556Z,6.32
2023-09-23T14:58:43.336Z,5.97
2023-09-23T15:01:31.260Z,6.53
2023-09-23T15:04:19.313Z,7.22
2023-09-23T15:07:07.232Z,6.78
2023-09-23T15:09:55.350Z,6.80
2023-09-23T15:12:45.273Z,6.70
2023-09-23T15:15:33.246Z,6.15
2023-09-23T15:18:21.026Z,6.60
2023-09-23T15:21:09.214Z,7.90
2023-09-23T15:23:56.930Z,7.10
2023-09-23T15:26:45.273Z,7.07
2023-09-23T15:29:34.492Z,6.65
2023-09-23T15:32:22.379Z,6.28
2023-09-23T15:35:10.964Z,8.48
2023-09-23T15:37:58.781Z,6.90
2023-09-23T15:40:46.771Z,7.75
2023-09-23T15:43:34.882Z,7.05
2023-09-23T15:46:23.996Z,7.20
2023-09-23T15:49:12.912Z,6.70
2023-09-23T15:52:00.925Z,7.20
2023-09-23T15:54:49.171Z,6.40
2023-09-23T15:57:37.597Z,6.57
2023-09-23T16:00:25.791Z,6.22
2023-09-23T16:03:15.407Z,6.85
2023-09-23T16:06:03.726Z,6.93
2023-09-23T16:08:51.758Z,6.93
2023-09-23T16:11:39.532Z,6.72
2023-09-23T16:14:27.384Z,6.38
2023-09-23T16:17:16.493Z,7.72
2023-09-23T16:20:07.280Z,8.32
2023-09-23T16:22:54.965Z,6.95
2023-09-23T16:25:42.702Z,7.70
2023-09-23T16:28:30.537Z,7.53
2023-09-23T16:31:18.334Z,7.40
2023-09-23T16:34:06.729Z,6.50
2023-09-23T16:36:56.270Z,8.23
2023-09-23T16:39:45.033Z,7.85
2023-09-23T16:42:32.763Z,7.30
2023-09-23T16:45:20.872Z,7.30
2023-09-23T16:48:09.212Z,7.03
2023-09-23T16:50:57.086Z,7.00
2023-09-23T16:53:47.225Z,7.40
2023-09-23T16:56:35.147Z,8.23
2023-09-23T16:59:23.295Z,8.27
2023-09-23T17:02:11.264Z,6.93
2023-09-23T17:05:00.228Z,7.88
2023-09-23T17:07:48.140Z,7.13
2023-09-23T17:10:37.398Z,6.80
2023-09-23T17:13:25.190Z,7.80
2023-09-23T17:16:12.911Z,8.23
2023-09-23T17:19:01.129Z,7.97
2023-09-23T17:21:49.681Z,7.30
2023-09-23T17:24:37.642Z,7.40
2023-09-23T17:27:27.328Z,6.45
2023-09-23T17:30:16.208Z,7.10
2023-09-23T17:33:05.573Z,8.38
2023-09-23T17:35:58.046Z,7.43
2023-09-23T17:38:46.482Z,9.13
2023-09-23T17:41:34.951Z,7.47
2023-09-23T17:44:24.268Z,7.03
2023-09-23T17:47:12.610Z,6.88
2023-09-23T17:50:00.519Z,7.28
2023-09-23T17:52:48.751Z,8.48
2023-09-23T17:55:36.579Z,7.25
2023-09-23T17:58:24.723Z,8.32
2023-09-23T18:01:13.963Z,7.72
2023-09-23T18:04:01.958Z,9.30
2023-09-23T18:06:50.980Z,7.93
2023-09-23T18:09:39.940Z,7.60
2023-09-23T18:12:28.112Z,7.00
2023-09-23T18:15:16.638Z,8.07
2023-09-23T18:18:06.332Z,8.05
2023-09-23T18:20:54.399Z,8.60
2023-09-23T18:23:45.239Z,7.85
2023-09-23T18:26:34.533Z,7.32
2023-09-23T18:29:23.094Z,7.50
2023-09-23T18:32:15.827Z,6.78
2023-09-23T18:35:06.017Z,6.70
2023-09-23T18:37:54.019Z,7.22
2023-09-23T18:40:43.472Z,5.97
2023-09-23T18:43:31.503Z,6.82
2023-09-23T18:46:20.777Z,7.68
2023-09-23T18:49:08.742Z,6.32
2023-09-23T18:52:00.289Z,6.75
2023-09-23T18:54:48.429Z,6.40
2023-09-23T18:57:36.253Z,7.40
2023-09-23T19:00:24.776Z,7.13
2023-09-23T19:03:12.733Z,7.15
2023-09-23T19:06:01.113Z,7.00
2023-09-23T19:08:51.528Z,7.75
2023-09-23T19:11:39.667Z,7.45
2023-09-23T19:14:27.891Z,7.70
2023-09-23T19:17:16.174Z,7.82
2023-09-23T19:20:06.835Z,6.15
2023-09-23T19:22:54.803Z,6.60
2023-09-23T19:25:44.042Z,6.53
2023-09-23T19:28:31.911Z,6.13
2023-09-23T19:31:20.328Z,6.03
2023-09-23T19:34:08.688Z,7.15
2023-09-23T19:36:57.574Z,7.30
2023-09-23T19:39:45.563Z,5.82
2023-09-23T19:42:35.732Z,6.82
2023-09-23T19:45:23.741Z,6.78
2023-09-23T19:48:11.759Z,6.97
2023-09-23T19:51:00.710Z,6.80
2023-09-23T19:53:49.034Z,6.55
2023-09-23T19:56:37.145Z,6.53
2023-09-23T19:59:27.760Z,5.75
2023-09-23T20:02:16.046Z,6.97
2023-09-23T20:05:03.725Z,6.68
2023-09-23T20:07:51.707Z,7.53
2023-09-23T20:10:40.031Z,6.53
2023-09-23T20:13:28.200Z,6.10
2023-09-23T20:16:17.364Z,6.32
2023-09-23T20:19:05.287Z,6.63
2023-09-23T20:21:52.956Z,5.72
2023-09-23T20:24:40.726Z,6.57
2023-09-23T20:27:28.473Z,7.03
2023-09-23T20:30:16.627Z,7.28
2023-09-23T20:33:06.724Z,7.68
2023-09-23T20:35:54.692Z,7.72
2023-09-23T20:38:42.780Z,6.55
2023-09-23T20:41:30.822Z,5.90
2023-09-23T20:44:18.561Z,7.72
2023-09-23T20:47:06.473Z,7.25
2023-09-23T20:49:55.550Z,6.88
2023-09-23T20:52:43.429Z,6.72
2023-09-23T20:55:31.775Z,5.85
2023-09-23T20:58:20.573Z,6.55
2023-09-23T21:01:08.271Z,6.47
2023-09-23T21:03:56.334Z,6.88
2023-09-23T21:06:45.724Z,6.53
2023-09-23T21:09:33.478Z,7.18
2023-09-23T21:12:21.842Z,6.13
2023-09-23T21:15:15.751Z,6.90
2023-09-23T21:20:51.431Z,6.30
2023-09-23T21:23:40.684Z,6.07
2023-09-23T21:26:28.663Z,6.25
2023-09-23T21:29:16.493Z,6.65
2023-09-23T21:32:04.696Z,7.15
2023-09-23T21:34:52.613Z,7.00
2023-09-23T21:37:40.460Z,7.75
2023-09-23T21:40:29.669Z,5.88
2023-09-23T21:43:17.847Z,6.15
2023-09-23T21:46:07.883Z,6.35
2023-09-23T21:48:55.672Z,7.22
2023-09-23T21:51:43.630Z,5.85
2023-09-23T21:54:31.323Z,6.45
2023-09-23T21:57:20.630Z,7.45
2023-09-23T22:00:26.780Z,6.78
2023-09-23T22:03:14.837Z,6.40
2023-09-23T22:06:03.588Z,7.05
2023-09-23T22:08:51.852Z,6.13
2023-09-23T22:11:39.998Z,7.82
2023-09-23T22:14:29.327Z,6.75
2023-09-23T22:17:17.072Z,7.07
2023-09-23T22:20:05.442Z,7.32
2023-09-23T22:22:53.181Z,6.45
2023-09-23T22:25:41.549Z,6.28
2023-09-23T22:28:29.535Z,6.22
2023-09-23T22:31:19.339Z,7.45
2023-09-23T22:34:07.616Z,6.72
2023-09-23T22:36:55.404Z,7.30
2023-09-23T22:39:52.792Z,6.55
2023-09-23T22:42:49.032Z,6.35
2023-09-23T22:45:39.810Z,5.75
2023-09-23T22:48:30.227Z,6.00
2023-09-23T22:51:20.892Z,6.15
2023-09-23T22:54:10.740Z,6.18
2023-09-23T22:56:58.495Z,7.22
2023-09-23T22:59:46.406Z,6.72
2023-09-23T23:02:34.148Z,6.93
2023-09-23T23:05:26.369Z,6.53
2023-09-23T23:08:14.482Z,6.28
2023-09-23T23:11:02.328Z,6.75
2023-09-23T23:13:50.624Z,6.88
2023-09-23T23:16:38.964Z,7.22
2023-09-23T23:19:28.003Z,6.82
2023-09-23T23:22:17.312Z,6.65
2023-09-23T23:25:06.095Z,6.68
2023-09-23T23:27:53.939Z,6.65
2023-09-23T23:30:43.929Z,6.93
2023-09-23T23:33:32.049Z,6.38
2023-09-23T23:36:19.827Z,8.75
2023-09-23T23:39:10.169Z,8.20
2023-09-23T23:42:00.127Z,8.70
2023-09-23T23:44:53.177Z,9.38
2023-09-23T23:47:41.775Z,9.60
2023-09-23T23:50:31.462Z,9.82
2023-09-23T23:53:19.394Z,9.52
2023-09-23T23:56:10.482Z,9.38
2023-09-23T23:58:58.367Z,10.60
